Time;durP1;ratioP1;P1;durP2;ratioP2;P2;SDS_P1;SDS_P2;PMS_P1;PMS_P2;Temp;Humidity;BMP_temperature;BMP_pressure;BME280_temperature;BME280_humidity;BME280_pressure;Samples;Min_cycle;Max_cycle;Signal;HPM_P1;HPM_P2
2024/03/05 00:01:55;;;;;;;6.83;4.73;;;;;;;;;;6321950;28;20024;-78
2024/03/05 00:04:55;;;;;;;5.07;4.45;;;;;;;;;;6321293;28;20104;-77
2024/03/05 00:07:56;;;;;;;5.47;4.67;;;;;;;;;;6322093;28;20550;-78
2024/03/05 00:10:56;;;;;;;5.47;4.40;;;;;;;;;;6306155;28;20105;-78
2024/03/05 00:13:57;;;;;;;5.53;4.60;;;;;;;;;;6324911;28;20459;-76
2024/03/05 00:16:57;;;;;;;;;;;;;;;;;;6325754;28;20027;-76
2024/03/05 00:19:58;;;;;;;4.70;3.78;;;;;;;;;;6320194;28;19912;-76
2024/03/05 00:22:58;;;;;;;6.53;5.00;;;;;;;;;;6320291;28;20027;-76
2024/03/05 00:25:58;;;;;;;7.37;5.40;;;;;;;;;;6306163;28;20043;-78
2024/03/05 00:29:02;;;;;;;7.37;4.60;;;;;;;;;;6322682;28;20020;-75
2024/03/05 00:32:02;;;;;;;6.13;4.95;;;;;;;;;;6321766;28;20016;-75
2024/03/05 00:35:04;;;;;;;6.87;5.07;;;;;;;;;;6322975;28;20043;-75
2024/03/05 00:38:04;;;;;;;9.05;5.30;;;;;;;;;;6317526;28;20066;-76
2024/03/05 00:41:06;;;;;;;7.33;5.03;;;;;;;;;;6321259;28;20035;-76
2024/03/05 00:44:06;;;;;;;7.10;5.22;;;;;;;;;;6321848;28;20023;-77
2024/03/05 00:47:06;;;;;;;6.70;4.87;;;;;;;;;;6321405;28;20103;-76
2024/03/05 00:50:07;;;;;;;7.60;5.47;;;;;;;;;;6320645;28;20525;-76
2024/03/05 00:53:07;;;;;;;6.70;5.30;;;;;;;;;;6320042;28;20476;-78
2024/03/05 00:56:07;;;;;;;7.17;5.10;;;;;;;;;;6319817;28;20023;-77
2024/03/05 00:59:08;;;;;;;6.00;4.60;;;;;;;;;;6322228;28;20031;-77
2024/03/05 01:02:08;;;;;;;7.20;4.83;;;;;;;;;;6313783;28;20032;-76
2024/03/05 01:05:12;;;;;;;6.97;4.87;;;;;;;;;;6319339;28;20012;-77
2024/03/05 01:08:12;;;;;;;6.45;4.97;;;;;;;;;;6320162;28;20146;-76
2024/03/05 01:11:13;;;;;;;7.67;5.20;;;;;;;;;;6320929;28;20020;-76
2024/03/05 01:14:14;;;;;;;7.63;5.13;;;;;;;;;;6319929;28;20024;-76
2024/03/05 01:17:14;;;;;;;8.75;4.68;;;;;;;;;;6320608;28;20389;-76
2024/03/05 01:20:18;;;;;;;6.53;4.70;;;;;;;;;;6301007;28;20034;-76
2024/03/05 01:23:19;;;;;;;7.53;5.20;;;;;;;;;;6317623;28;20096;-79
2024/03/05 01:26:19;;;;;;;7.32;5.40;;;;;;;;;;6320828;28;20428;-79
2024/03/05 01:29:21;;;;;;;6.93;4.97;;;;;;;;;;6321282;28;20436;-79
2024/03/05 01:32:22;;;;;;;5.97;4.78;;;;;;;;;;6313164;28;20103;-79
2024/03/05 01:35:22;;;;;;;8.30;5.90;;;;;;;;;;6317863;28;20027;-77
2024/03/05 01:38:22;;;;;;;7.33;5.03;;;;;;;;;;6293307;28;20120;-79
2024/03/05 01:41:23;;;;;;;7.43;5.03;;;;;;;;;;6319276;28;20028;-77
2024/03/05 01:44:23;;;;;;;6.90;4.95;;;;;;;;;;6320262;28;20508;-79
2024/03/05 01:47:25;;;;;;;9.20;5.30;;;;;;;;;;6299700;28;20032;-79
2024/03/05 01:50:26;;;;;;;6.85;5.07;;;;;;;;;;6318987;28;20262;-79
2024/03/05 01:53:27;;;;;;;6.72;5.03;;;;;;;;;;6318152;28;20082;-79
2024/03/05 01:56:27;;;;;;;9.70;5.63;;;;;;;;;;6312325;28;20035;-79
2024/03/05 01:59:28;;;;;;;6.77;5.03;;;;;;;;;;6312929;28;20074;-79
2024/03/05 02:02:29;;;;;;;7.70;5.57;;;;;;;;;;6319950;28;20028;-79
2024/03/05 02:05:29;;;;;;;;;;;;;;;;;;6298878;28;20024;-81
2024/03/05 02:08:29;;;;;;;6.22;4.22;;;;;;;;;;6318900;28;20339;-81
2024/03/05 02:11:32;;;;;;;7.17;4.43;;;;;;;;;;6318149;28;20098;-79
2024/03/05 02:14:32;;;;;;;7.63;5.43;;;;;;;;;;6301002;28;20195;-80
2024/03/05 02:17:32;;;;;;;6.47;5.17;;;;;;;;;;6319967;28;20024;-81
2024/03/05 02:20:33;;;;;;;6.60;5.00;;;;;;;;;;6318768;28;20054;-81
2024/03/05 02:23:34;;;;;;;5.47;4.60;;;;;;;;;;6318956;28;20085;-81
2024/03/05 02:26:34;;;;;;;9.10;5.30;;;;;;;;;;6316681;28;20093;-81
2024/03/05 02:29:38;;;;;;;6.60;4.87;;;;;;;;;;6319564;28;20031;-80
2024/03/05 02:32:40;;;;;;;6.88;5.53;;;;;;;;;;6319648;28;20016;-78
2024/03/05 02:35:40;;;;;;;7.43;5.50;;;;;;;;;;6317975;28;20103;-78
2024/03/05 02:38:41;;;;;;;6.57;4.63;;;;;;;;;;6317869;28;20039;-78
2024/03/05 02:41:41;;;;;;;6.00;4.87;;;;;;;;;;6315525;28;20035;-78
2024/03/05 02:44:41;;;;;;;7.33;5.20;;;;;;;;;;6317307;28;20028;-76
2024/03/05 02:47:42;;;;;;;7.77;5.20;;;;;;;;;;6319078;28;20042;-76
2024/03/05 02:50:42;;;;;;;6.73;5.00;;;;;;;;;;6317119;28;20024;-76
2024/03/05 02:53:42;;;;;;;8.67;5.17;;;;;;;;;;6318099;28;20518;-79
2024/03/05 02:56:43;;;;;;;7.17;5.47;;;;;;;;;;6324749;28;20111;-77
2024/03/05 02:59:43;;;;;;;6.53;4.87;;;;;;;;;;6323221;28;20046;-77
2024/03/05 03:02:48;;;;;;;7.15;5.32;;;;;;;;;;6315090;28;20362;-77
2024/03/05 03:05:48;;;;;;;7.97;5.75;;;;;;;;;;6322080;28;20028;-76
2024/03/05 03:08:48;;;;;;;9.30;5.47;;;;;;;;;;6323989;28;20023;-77
2024/03/05 03:11:49;;;;;;;7.83;5.40;;;;;;;;;;6322092;28;20024;-76
2024/03/05 03:14:49;;;;;;;7.57;5.23;;;;;;;;;;6322888;28;20048;-76
2024/03/05 03:17:49;;;;;;;6.67;5.00;;;;;;;;;;6324221;28;20036;-76
2024/03/05 03:20:49;;;;;;;7.87;5.70;;;;;;;;;;6320622;28;20032;-76
2024/03/05 03:23:50;;;;;;;6.47;5.30;;;;;;;;;;6321939;28;20032;-77
2024/03/05 03:26:51;;;;;;;7.00;5.53;;;;;;;;;;6324553;28;20057;-76
2024/03/05 03:29:51;;;;;;;8.13;5.65;;;;;;;;;;6319624;28;20028;-76
2024/03/05 03:32:51;;;;;;;8.03;5.83;;;;;;;;;;6324024;28;20107;-76
2024/03/05 03:35:54;;;;;;;6.65;5.32;;;;;;;;;;6320458;28;20103;-76
2024/03/05 03:38:55;;;;;;;7.82;5.78;;;;;;;;;;6323104;28;20089;-76
2024/03/05 03:41:55;;;;;;;7.37;5.60;;;;;;;;;;6319577;28;20381;-76
2024/03/05 03:44:56;;;;;;;7.77;5.57;;;;;;;;;;6323136;28;20063;-79
2024/03/05 03:47:56;;;;;;;7.85;5.82;;;;;;;;;;6323449;28;20408;-78
2024/03/05 03:50:56;;;;;;;7.97;5.57;;;;;;;;;;6319916;28;20032;-79
2024/03/05 03:53:57;;;;;;;7.63;5.37;;;;;;;;;;6303305;28;20031;-79
2024/03/05 03:56:57;;;;;;;7.83;5.53;;;;;;;;;;6304502;28;20054;-79
2024/03/05 03:59:57;;;;;;;9.07;6.00;;;;;;;;;;6304479;28;20049;-79
2024/03/05 04:02:58;;;;;;;10.93;5.67;;;;;;;;;;6322372;28;20437;-79
2024/03/05 04:05:59;;;;;;;9.13;6.00;;;;;;;;;;6321725;28;20024;-79
2024/03/05 04:09:00;;;;;;;7.30;5.43;;;;;;;;;;6300713;28;20047;-79
2024/03/05 04:12:01;;;;;;;;;;;;;;;;;;6303001;28;20020;-79
2024/03/05 04:15:02;;;;;;;6.47;4.63;;;;;;;;;;6323137;28;19915;-78
2024/03/05 04:18:03;;;;;;;7.97;5.53;;;;;;;;;;6324329;28;20023;-80
2024/03/05 04:21:03;;;;;;;7.57;6.00;;;;;;;;;;6320168;28;20028;-79
2024/03/05 04:24:04;;;;;;;7.10;5.57;;;;;;;;;;6320521;28;20035;-80
2024/03/05 04:27:05;;;;;;;8.73;6.22;;;;;;;;;;6317505;28;20043;-79
2024/03/05 04:30:10;;;;;;;9.23;6.20;;;;;;;;;;6321564;28;20495;-79
2024/03/05 04:33:11;;;;;;;9.13;6.43;;;;;;;;;;6322363;28;20020;-79
2024/03/05 04:36:14;;;;;;;7.77;5.87;;;;;;;;;;6320220;28;20514;-79
2024/03/05 04:39:15;;;;;;;7.65;5.72;;;;;;;;;;6322317;28;20027;-79
2024/03/05 04:42:16;;;;;;;10.52;6.55;;;;;;;;;;6316969;28;20127;-79
2024/03/05 04:45:17;;;;;;;8.37;6.03;;;;;;;;;;6322559;28;20036;-79
2024/03/05 04:48:17;;;;;;;;;;;;;;;;;;6304237;28;20036;-79
2024/03/05 04:51:18;;;;;;;6.90;5.10;;;;;;;;;;6302667;28;20300;-79
2024/03/05 04:54:18;;;;;;;8.35;5.47;;;;;;;;;;6321238;28;20028;-79
2024/03/05 04:57:19;;;;;;;10.40;5.67;;;;;;;;;;6305012;28;20024;-80
2024/03/05 05:00:20;;;;;;;8.75;5.75;;;;;;;;;;6320162;28;20460;-79
2024/03/05 05:03:20;;;;;;;7.37;5.60;;;;;;;;;;6322853;28;20035;-79
2024/03/05 05:06:21;;;;;;;8.13;6.03;;;;;;;;;;6312690;28;20023;-79
2024/03/05 05:09:22;;;;;;;7.93;5.35;;;;;;;;;;6321536;28;20028;-78
2024/03/05 05:12:22;;;;;;;8.20;6.20;;;;;;;;;;6319940;28;20035;-79
2024/03/05 05:15:23;;;;;;;8.10;6.20;;;;;;;;;;6321304;28;20032;-80
2024/03/05 05:18:24;;;;;;;8.80;5.82;;;;;;;;;;6301541;28;20475;-80
2024/03/05 05:21:24;;;;;;;7.93;6.23;;;;;;;;;;6319725;28;20032;-80
2024/03/05 05:24:24;;;;;;;8.03;6.10;;;;;;;;;;6301362;28;20043;-77
2024/03/05 05:27:24;;;;;;;10.13;6.60;;;;;;;;;;6320222;28;20024;-76
2024/03/05 05:30:26;;;;;;;11.30;7.07;;;;;;;;;;6301391;28;20036;-76
2024/03/05 05:33:27;;;;;;;8.82;6.43;;;;;;;;;;6319221;28;20024;-76
2024/03/05 05:36:27;;;;;;;10.15;7.35;;;;;;;;;;6318930;28;20035;-77
2024/03/05 05:39:27;;;;;;;9.80;6.23;;;;;;;;;;6320256;28;20032;-78
2024/03/05 05:42:28;;;;;;;8.90;6.43;;;;;;;;;;6318748;28;20040;-76
2024/03/05 05:45:28;;;;;;;10.17;6.83;;;;;;;;;;6302129;28;20020;-79
2024/03/05 05:48:28;;;;;;;8.17;6.83;;;;;;;;;;6301233;28;20023;-78
2024/03/05 05:51:35;;;;;;;10.73;7.77;;;;;;;;;;6316754;28;20540;-76
2024/03/05 05:54:42;;;;;;;11.40;7.10;;;;;;;;;;6319964;28;20028;-78
2024/03/05 05:57:49;;;;;;;9.57;6.70;;;;;;;;;;6319961;28;20039;-78
2024/03/05 06:00:50;;;;;;;8.93;6.65;;;;;;;;;;6318582;28;20115;-79
2024/03/05 06:03:51;;;;;;;9.45;6.68;;;;;;;;;;6319512;28;20438;-80
2024/03/05 06:06:51;;;;;;;9.40;7.20;;;;;;;;;;6318130;28;20039;-80
2024/03/05 06:09:51;;;;;;;10.93;7.00;;;;;;;;;;6318730;28;20020;-79
2024/03/05 06:12:52;;;;;;;9.70;7.17;;;;;;;;;;6317249;28;20032;-77
2024/03/05 06:15:52;;;;;;;8.93;6.57;;;;;;;;;;6319818;28;20036;-77
2024/03/05 06:18:52;;;;;;;9.13;6.72;;;;;;;;;;6318500;28;20048;-78
2024/03/05 06:21:53;;;;;;;9.57;7.07;;;;;;;;;;6318141;28;20039;-77
2024/03/05 06:24:53;;;;;;;8.53;6.63;;;;;;;;;;6317570;28;20378;-79
2024/03/05 06:27:53;;;;;;;8.17;6.43;;;;;;;;;;6317024;28;20016;-77
2024/03/05 06:30:53;;;;;;;9.13;6.50;;;;;;;;;;6322372;28;20074;-76
2024/03/05 06:33:54;;;;;;;7.67;5.83;;;;;;;;;;6325341;28;20023;-74
2024/03/05 06:36:56;;;;;;;8.70;6.30;;;;;;;;;;6301475;28;20031;-75
2024/03/05 06:39:58;;;;;;;9.80;6.80;;;;;;;;;;6322278;28;20035;-75
2024/03/05 06:43:12;;;;;;;9.88;7.18;;;;;;;;;;6322872;28;20028;-76
2024/03/05 06:46:13;;;;;;;10.73;6.85;;;;;;;;;;6322751;28;20035;-76
2024/03/05 06:49:14;;;;;;;9.55;6.88;;;;;;;;;;6304005;28;20124;-74
2024/03/05 06:58:54;;;;;;;10.65;6.80;;;;;;;;;;6322322;28;20112;-75
2024/03/05 07:01:55;;;;;;;10.97;6.73;;;;;;;;;;6323436;28;20062;-75
2024/03/05 07:04:56;;;;;;;10.23;6.93;;;;;;;;;;6322805;28;20465;-75
2024/03/05 07:07:56;;;;;;;9.52;7.50;;;;;;;;;;6322787;28;20043;-75
2024/03/05 07:10:57;;;;;;;10.67;7.27;;;;;;;;;;6301959;28;20063;-75
2024/03/05 07:13:57;;;;;;;11.03;7.37;;;;;;;;;;6323947;28;20083;-74
2024/03/05 07:16:58;;;;;;;9.75;6.78;;;;;;;;;;6321919;28;20480;-76
2024/03/05 07:19:58;;;;;;;8.57;6.73;;;;;;;;;;6319946;28;21305;-75
2024/03/05 07:22:58;;;;;;;8.80;7.20;;;;;;;;;;6321283;28;20376;-78
2024/03/05 07:25:59;;;;;;;9.03;6.67;;;;;;;;;;6317900;28;20477;-78
2024/03/05 07:28:59;;;;;;;9.18;6.65;;;;;;;;;;6319570;28;20020;-78
2024/03/05 07:31:59;;;;;;;8.37;6.50;;;;;;;;;;6326048;28;20471;-78
2024/03/05 07:35:00;;;;;;;9.63;6.90;;;;;;;;;;6320891;28;20070;-77
2024/03/05 07:38:00;;;;;;;8.93;6.80;;;;;;;;;;6325183;28;20062;-80
2024/03/05 07:41:00;;;;;;;8.90;6.80;;;;;;;;;;6307451;28;20111;-79
2024/03/05 07:44:02;;;;;;;9.43;6.70;;;;;;;;;;6325671;28;20131;-78
2024/03/05 07:47:02;;;;;;;9.77;6.97;;;;;;;;;;6325787;28;20020;-78
2024/03/05 07:50:02;;;;;;;8.37;6.70;;;;;;;;;;6321876;28;20063;-78
2024/03/05 07:53:03;;;;;;;8.60;6.63;;;;;;;;;;6321750;28;20016;-78
2024/03/05 07:56:04;;;;;;;9.27;6.63;;;;;;;;;;6325301;28;20385;-77
2024/03/05 07:59:05;;;;;;;9.55;7.03;;;;;;;;;;6324788;28;20020;-78
2024/03/05 08:02:05;;;;;;;8.50;6.70;;;;;;;;;;6308109;28;20036;-78
2024/03/05 08:05:06;;;;;;;9.20;6.80;;;;;;;;;;6299309;28;20070;-78
2024/03/05 08:08:06;;;;;;;9.30;6.65;;;;;;;;;;6330226;28;20093;-78
2024/03/05 08:11:07;;;;;;;10.83;7.00;;;;;;;;;;6325150;28;20414;-78
2024/03/05 08:14:07;;;;;;;11.03;7.17;;;;;;;;;;6298194;28;20412;-78
2024/03/05 08:17:08;;;;;;;10.13;7.17;;;;;;;;;;6294137;28;20028;-78
2024/03/05 08:20:09;;;;;;;8.70;6.65;;;;;;;;;;6321563;28;20464;-78
2024/03/05 08:23:09;;;;;;;8.13;6.60;;;;;;;;;;6323595;28;20081;-78
2024/03/05 08:26:11;;;;;;;9.07;6.85;;;;;;;;;;6324661;28;20055;-78
2024/03/05 08:29:11;;;;;;;;;;;;;;;;;;6326011;28;20032;-78
2024/03/05 08:32:11;;;;;;;8.30;5.22;;;;;;;;;;6325401;28;20280;-78
2024/03/05 08:35:11;;;;;;;8.17;6.17;;;;;;;;;;6321041;28;20476;-75
2024/03/05 08:38:13;;;;;;;8.00;6.27;;;;;;;;;;6318656;28;20086;-76
2024/03/05 08:41:14;;;;;;;9.45;6.78;;;;;;;;;;6316101;28;20107;-75
2024/03/05 08:44:15;;;;;;;9.63;6.78;;;;;;;;;;6296583;28;20033;-75
2024/03/05 08:47:15;;;;;;;7.47;6.15;;;;;;;;;;6308875;28;20101;-75
2024/03/05 08:50:16;;;;;;;8.90;6.27;;;;;;;;;;6301619;28;20039;-74
2024/03/05 08:53:16;;;;;;;9.80;6.60;;;;;;;;;;6302895;28;20028;-75
2024/03/05 08:56:16;;;;;;;11.03;6.97;;;;;;;;;;6311307;28;20021;-75
2024/03/05 08:59:17;;;;;;;9.87;6.00;;;;;;;;;;6298695;28;20051;-75
2024/03/05 09:02:17;;;;;;;8.47;6.40;;;;;;;;;;6313046;28;20020;-75
2024/03/05 09:05:17;;;;;;;8.07;5.73;;;;;;;;;;6322187;28;20028;-76
2024/03/05 09:08:17;;;;;;;9.33;6.10;;;;;;;;;;6325555;28;20354;-75
2024/03/05 09:11:18;;;;;;;7.13;5.67;;;;;;;;;;6319716;28;20492;-76
2024/03/05 09:14:19;;;;;;;7.03;5.60;;;;;;;;;;6322801;28;20051;-75
2024/03/05 09:17:21;;;;;;;;;;;;;;;;;;6322707;28;20266;-75
2024/03/05 09:20:21;;;;;;;6.95;4.63;;;;;;;;;;6319626;28;19912;-75
2024/03/05 09:23:21;;;;;;;6.73;5.17;;;;;;;;;;6322469;28;20036;-75
2024/03/05 09:26:21;;;;;;;7.17;5.20;;;;;;;;;;6317159;28;20517;-75
2024/03/05 09:29:22;;;;;;;8.57;5.40;;;;;;;;;;6317329;28;20039;-75
2024/03/05 09:32:24;;;;;;;8.13;5.63;;;;;;;;;;6323361;28;20103;-75
2024/03/05 09:35:24;;;;;;;7.28;5.30;;;;;;;;;;6320993;28;20444;-75
2024/03/05 09:38:25;;;;;;;6.10;4.90;;;;;;;;;;6322469;28;20012;-76
2024/03/05 09:41:27;;;;;;;6.73;5.27;;;;;;;;;;6323291;28;20044;-76
2024/03/05 09:44:30;;;;;;;6.75;5.35;;;;;;;;;;6311033;28;20048;-77
2024/03/05 09:47:30;;;;;;;8.67;5.60;;;;;;;;;;6312084;28;20488;-77
2024/03/05 09:50:33;;;;;;;8.50;5.53;;;;;;;;;;6306209;28;20116;-76
2024/03/05 09:53:34;;;;;;;6.78;5.15;;;;;;;;;;6324597;28;20107;-76
2024/03/05 09:56:35;;;;;;;7.30;5.40;;;;;;;;;;6324686;28;20020;-77
2024/03/05 09:59:39;;;;;;;7.32;5.35;;;;;;;;;;6322401;28;20120;-77
2024/03/05 10:02:39;;;;;;;8.13;4.82;;;;;;;;;;6324061;28;20035;-76
2024/03/05 10:05:40;;;;;;;7.93;5.47;;;;;;;;;;6320502;28;20020;-76
2024/03/05 10:08:41;;;;;;;6.97;4.78;;;;;;;;;;6321270;28;20050;-77
2024/03/05 10:11:41;;;;;;;6.82;4.95;;;;;;;;;;6323043;28;20464;-76
2024/03/05 10:14:41;;;;;;;8.18;5.18;;;;;;;;;;6320479;28;20036;-77
2024/03/05 10:17:43;;;;;;;8.53;5.03;;;;;;;;;;6321237;28;20050;-77
2024/03/05 10:20:44;;;;;;;7.53;5.13;;;;;;;;;;6302929;28;20116;-77
2024/03/05 10:23:49;;;;;;;6.57;4.97;;;;;;;;;;6321723;28;20032;-77
2024/03/05 10:26:49;;;;;;;6.45;5.10;;;;;;;;;;6320484;28;20051;-77
2024/03/05 10:29:49;;;;;;;8.32;4.82;;;;;;;;;;6321186;28;20021;-77
2024/03/05 10:32:57;;;;;;;6.33;4.97;;;;;;;;;;6303616;28;20032;-77
2024/03/05 10:35:57;;;;;;;6.25;5.15;;;;;;;;;;6320790;28;20016;-76
2024/03/05 10:38:58;;;;;;;9.03;5.07;;;;;;;;;;6320486;28;20035;-77
2024/03/05 10:41:59;;;;;;;16.35;5.18;;;;;;;;;;6316877;28;20032;-77
2024/03/05 10:45:00;;;;;;;7.53;5.20;;;;;;;;;;6306044;28;20052;-77
2024/03/05 10:48:00;;;;;;;8.52;5.07;;;;;;;;;;6321443;28;20036;-77
2024/03/05 10:51:02;;;;;;;5.73;4.47;;;;;;;;;;6316498;28;20039;-77
2024/03/05 10:54:04;;;;;;;7.07;4.75;;;;;;;;;;6318992;28;21112;-76
2024/03/05 10:57:05;;;;;;;6.50;4.70;;;;;;;;;;6315352;28;20031;-77
2024/03/05 11:00:12;;;;;;;7.00;5.13;;;;;;;;;;6321145;28;20028;-77
2024/03/05 11:03:14;;;;;;;6.13;4.85;;;;;;;;;;6297373;28;20020;-78
2024/03/05 11:06:17;;;;;;;5.95;4.50;;;;;;;;;;6301244;28;20480;-76
2024/03/05 11:09:19;;;;;;;6.47;4.40;;;;;;;;;;6291436;28;20027;-77
2024/03/05 11:12:20;;;;;;;6.57;4.75;;;;;;;;;;6295477;28;20024;-77
2024/03/05 11:15:21;;;;;;;4.97;4.25;;;;;;;;;;6319284;28;20038;-76
2024/03/05 11:18:28;;;;;;;6.90;4.43;;;;;;;;;;6316385;28;20032;-77
2024/03/05 11:21:30;;;;;;;6.28;4.28;;;;;;;;;;6327938;28;20123;-77
2024/03/05 11:24:32;;;;;;;5.53;4.05;;;;;;;;;;6337283;28;20059;-77
2024/03/05 11:27:36;;;;;;;5.47;4.03;;;;;;;;;;6327331;28;20050;-77
2024/03/05 11:30:37;;;;;;;4.47;3.90;;;;;;;;;;6324495;28;20067;-76
2024/03/05 11:33:40;;;;;;;5.27;4.03;;;;;;;;;;6324691;28;20430;-79
2024/03/05 11:36:40;;;;;;;5.45;4.10;;;;;;;;;;6342773;28;20463;-77
2024/03/05 11:39:43;;;;;;;6.23;4.13;;;;;;;;;;6340935;28;20036;-78
2024/03/05 11:42:47;;;;;;;6.80;3.92;;;;;;;;;;6299247;28;20097;-77
2024/03/05 11:45:48;;;;;;;6.22;3.95;;;;;;;;;;6324671;28;20031;-77
2024/03/05 11:48:57;;;;;;;4.75;3.90;;;;;;;;;;6326051;28;20115;-79
2024/03/05 11:51:58;;;;;;;5.50;4.18;;;;;;;;;;6322374;28;20031;-77
2024/03/05 11:54:59;;;;;;;6.05;4.15;;;;;;;;;;6324931;28;20046;-79
2024/03/05 11:58:00;;;;;;;;;;;;;;;;;;6318280;28;20488;-77
2024/03/05 12:01:03;;;;;;;4.60;3.08;;;;;;;;;;6325493;28;19916;-77
2024/03/05 12:04:07;;;;;;;6.75;3.88;;;;;;;;;;6323092;28;20032;-77
2024/03/05 12:07:11;;;;;;;5.10;3.88;;;;;;;;;;6313782;28;20059;-77
2024/03/05 12:10:19;;;;;;;5.57;3.88;;;;;;;;;;6317127;28;20032;-78
2024/03/05 12:13:19;;;;;;;7.22;4.85;;;;;;;;;;6324238;28;20024;-77
2024/03/05 12:16:19;;;;;;;8.30;5.13;;;;;;;;;;6324170;28;20063;-77
2024/03/05 12:19:20;;;;;;;6.63;4.22;;;;;;;;;;6322808;28;20032;-78
2024/03/05 12:22:20;;;;;;;5.07;4.00;;;;;;;;;;6321881;28;20391;-77
2024/03/05 12:25:21;;;;;;;6.83;4.30;;;;;;;;;;6323839;28;20059;-77
2024/03/05 12:28:21;;;;;;;;;;;;;;;;;;6322179;28;20446;-77
2024/03/05 12:31:22;;;;;;;5.40;3.55;;;;;;;;;;6324887;28;19904;-77
2024/03/05 12:34:23;;;;;;;7.40;4.30;;;;;;;;;;6321754;28;20427;-77
2024/03/05 12:37:26;;;;;;;6.70;4.28;;;;;;;;;;6317073;28;20024;-77
2024/03/05 12:40:28;;;;;;;6.88;4.75;;;;;;;;;;6323946;28;20036;-77
2024/03/05 12:43:29;;;;;;;6.75;5.20;;;;;;;;;;6316744;28;20390;-77
2024/03/05 12:46:31;;;;;;;6.03;4.50;;;;;;;;;;6316195;28;20040;-78
2024/03/05 12:49:35;;;;;;;7.55;4.78;;;;;;;;;;6288101;28;20085;-77
2024/03/05 12:52:36;;;;;;;7.13;4.97;;;;;;;;;;6315661;28;20027;-77
2024/03/05 12:55:37;;;;;;;6.30;4.63;;;;;;;;;;6323092;28;20467;-77
2024/03/05 12:58:40;;;;;;;7.10;4.65;;;;;;;;;;6305835;28;20476;-76
2024/03/05 13:01:41;;;;;;;8.80;4.38;;;;;;;;;;6325011;28;20073;-77
2024/03/05 13:04:41;;;;;;;8.43;4.73;;;;;;;;;;6321899;28;20429;-77
2024/03/05 13:07:41;;;;;;;7.40;4.95;;;;;;;;;;6311910;28;20385;-77
2024/03/05 13:10:42;;;;;;;7.00;4.37;;;;;;;;;;6288950;28;20090;-77
2024/03/05 13:13:42;;;;;;;6.55;4.65;;;;;;;;;;6324248;28;20031;-76
2024/03/05 13:16:43;;;;;;;6.83;4.73;;;;;;;;;;6307593;28;20549;-77
2024/03/05 13:19:44;;;;;;;6.70;4.75;;;;;;;;;;6314432;28;20066;-76
2024/03/05 13:22:51;;;;;;;7.68;5.22;;;;;;;;;;6314732;28;20619;-76
2024/03/05 13:25:52;;;;;;;7.15;5.15;;;;;;;;;;6315241;28;20044;-77
2024/03/05 13:28:52;;;;;;;8.50;4.93;;;;;;;;;;6322478;28;20024;-76
2024/03/05 13:31:52;;;;;;;6.83;5.23;;;;;;;;;;6325611;28;20028;-76
2024/03/05 13:34:53;;;;;;;8.20;5.63;;;;;;;;;;6322601;28;20051;-75
2024/03/05 13:37:55;;;;;;;6.88;5.35;;;;;;;;;;6319874;28;20251;-77
2024/03/05 13:40:56;;;;;;;6.63;5.13;;;;;;;;;;6309827;28;20032;-76
2024/03/05 13:43:59;;;;;;;8.60;5.43;;;;;;;;;;6321951;28;20437;-76
2024/03/05 13:46:59;;;;;;;7.10;5.13;;;;;;;;;;6305208;28;20031;-76
2024/03/05 13:49:59;;;;;;;9.47;6.10;;;;;;;;;;6321269;28;20024;-77
2024/03/05 13:52:59;;;;;;;7.97;5.57;;;;;;;;;;6322601;28;20028;-77
2024/03/05 13:55:59;;;;;;;6.20;4.83;;;;;;;;;;6322872;28;20024;-76
2024/03/05 13:59:00;;;;;;;6.33;4.67;;;;;;;;;;6319967;28;20036;-77
2024/03/05 14:02:01;;;;;;;7.65;4.35;;;;;;;;;;6313563;28;20024;-77
2024/03/05 14:05:04;;;;;;;6.93;4.13;;;;;;;;;;6316494;28;20035;-77
2024/03/05 14:08:06;;;;;;;6.20;4.30;;;;;;;;;;6321753;28;20032;-77
2024/03/05 14:11:06;;;;;;;5.40;4.00;;;;;;;;;;6308989;28;20173;-78
2024/03/05 14:14:06;;;;;;;5.80;4.03;;;;;;;;;;6315698;28;20030;-77
2024/03/05 14:17:09;;;;;;;4.57;3.83;;;;;;;;;;6310806;28;20036;-78
2024/03/05 14:20:09;;;;;;;5.85;4.15;;;;;;;;;;6300141;28;20024;-77
2024/03/05 14:23:11;;;;;;;5.70;3.92;;;;;;;;;;6320434;28;20032;-77
2024/03/05 14:26:12;;;;;;;4.97;3.95;;;;;;;;;;6303419;28;20052;-77
2024/03/05 14:29:12;;;;;;;6.20;4.17;;;;;;;;;;6322448;28;20047;-77
2024/03/05 14:32:12;;;;;;;4.77;3.90;;;;;;;;;;6314464;28;20035;-77
2024/03/05 14:35:12;;;;;;;5.57;4.10;;;;;;;;;;6299420;28;20077;-77
2024/03/05 14:38:16;;;;;;;5.50;4.07;;;;;;;;;;6322333;28;20033;-77
2024/03/05 14:41:16;;;;;;;5.88;4.38;;;;;;;;;;6305893;28;20067;-77
2024/03/05 14:44:16;;;;;;;7.40;5.17;;;;;;;;;;6320442;28;20076;-77
2024/03/05 14:47:17;;;;;;;6.47;4.40;;;;;;;;;;6321933;28;20142;-76
2024/03/05 14:50:17;;;;;;;8.32;4.93;;;;;;;;;;6321064;28;20055;-77
2024/03/05 14:53:19;;;;;;;5.88;4.07;;;;;;;;;;6326726;28;20036;-76
2024/03/05 14:56:19;;;;;;;;;;;;;;;;;;6330628;28;20034;-76
2024/03/05 14:59:20;;;;;;;4.97;3.80;;;;;;;;;;6313734;28;19912;-77
2024/03/05 15:02:20;;;;;;;5.35;4.05;;;;;;;;;;6326122;28;20025;-77
2024/03/05 15:05:22;;;;;;;7.35;4.18;;;;;;;;;;6319436;28;20032;-77
2024/03/05 15:08:23;;;;;;;6.72;4.70;;;;;;;;;;6322313;28;20461;-77
2024/03/05 15:11:23;;;;;;;6.50;4.40;;;;;;;;;;6326484;28;20074;-77
2024/03/05 15:14:24;;;;;;;6.17;4.60;;;;;;;;;;6323630;28;20020;-77
2024/03/05 15:17:24;;;;;;;5.95;4.53;;;;;;;;;;6317668;28;20020;-77
2024/03/05 15:20:25;;;;;;;6.20;4.47;;;;;;;;;;6315844;28;20051;-77
2024/03/05 15:23:25;;;;;;;6.70;4.73;;;;;;;;;;6308216;28;20393;-77
2024/03/05 15:26:25;;;;;;;5.90;4.40;;;;;;;;;;6310967;28;20055;-77
2024/03/05 15:29:26;;;;;;;5.33;4.23;;;;;;;;;;6325518;28;20036;-77
2024/03/05 15:32:27;;;;;;;6.80;4.63;;;;;;;;;;6319962;28;20016;-77
2024/03/05 15:35:28;;;;;;;6.35;4.75;;;;;;;;;;6299145;28;20028;-77
2024/03/05 15:38:29;;;;;;;5.93;4.65;;;;;;;;;;6307280;28;20020;-76
2024/03/05 15:41:30;;;;;;;6.47;4.72;;;;;;;;;;6323132;28;20458;-77
2024/03/05 15:44:30;;;;;;;7.25;5.38;;;;;;;;;;6315448;28;20031;-76
2024/03/05 15:47:30;;;;;;;5.87;4.67;;;;;;;;;;6312095;28;20378;-77
2024/03/05 15:50:30;;;;;;;7.97;5.10;;;;;;;;;;6318566;28;20016;-77
2024/03/05 15:53:31;;;;;;;6.13;5.10;;;;;;;;;;6323765;28;20027;-77
2024/03/05 15:56:44;;;;;;;6.50;5.00;;;;;;;;;;6320014;28;20468;-77
2024/03/05 16:03:06;;;;;;;6.53;4.22;;;;;;;;;;6305861;28;20122;-78
2024/03/05 16:06:08;;;;;;;6.13;4.85;;;;;;;;;;6315001;28;20042;-77
2024/03/05 16:09:08;;;;;;;;;;;;;;;;;;6325154;28;20107;-77
2024/03/05 16:12:08;;;;;;;6.20;3.90;;;;;;;;;;6314425;28;20257;-77
2024/03/05 16:15:10;;;;;;;6.13;4.73;;;;;;;;;;6319994;28;20039;-76
2024/03/05 16:18:10;;;;;;;4.68;4.18;;;;;;;;;;6321869;28;20254;-77
2024/03/05 16:21:12;;;;;;;6.63;4.87;;;;;;;;;;6308337;28;20021;-77
2024/03/05 16:24:13;;;;;;;6.13;4.70;;;;;;;;;;6322648;28;20461;-77
2024/03/05 16:27:15;;;;;;;6.57;4.97;;;;;;;;;;6322980;28;20069;-77
2024/03/05 16:30:17;;;;;;;7.45;5.15;;;;;;;;;;6321609;28;20020;-77
2024/03/05 16:33:17;;;;;;;6.43;5.05;;;;;;;;;;6307940;28;20472;-77
2024/03/05 16:36:17;;;;;;;7.57;5.10;;;;;;;;;;6322826;28;20031;-77
2024/03/05 16:39:19;;;;;;;6.37;5.10;;;;;;;;;;6323357;28;20056;-77
2024/03/05 16:42:19;;;;;;;7.25;5.13;;;;;;;;;;6320462;28;20115;-76
2024/03/05 16:45:23;;;;;;;7.27;5.47;;;;;;;;;;6311816;28;20031;-77
2024/03/05 16:48:23;;;;;;;6.35;5.07;;;;;;;;;;6306210;28;20101;-77
2024/03/05 16:51:24;;;;;;;5.77;4.90;;;;;;;;;;6310075;28;20025;-77
2024/03/05 16:54:24;;;;;;;6.57;4.87;;;;;;;;;;6291728;28;20019;-77
2024/03/05 16:57:24;;;;;;;6.07;4.73;;;;;;;;;;6314580;28;20028;-77
2024/03/05 17:00:33;;;;;;;6.40;4.93;;;;;;;;;;6319229;28;20094;-77
2024/03/05 17:03:34;;;;;;;7.55;5.10;;;;;;;;;;6315499;28;20036;-77
2024/03/05 17:06:35;;;;;;;;;;;;;;;;;;6321632;28;20016;-77
2024/03/05 17:09:36;;;;;;;4.27;3.73;;;;;;;;;;6323429;28;19904;-77
2024/03/05 17:12:39;;;;;;;;;;;;;;;;;;6319406;28;20024;-77
2024/03/05 17:15:41;;;;;;;6.40;3.88;;;;;;;;;;6318076;28;20014;-77
2024/03/05 17:18:41;;;;;;;5.60;4.45;;;;;;;;;;6320447;28;20034;-77
2024/03/05 17:21:41;;;;;;;8.40;4.70;;;;;;;;;;6314293;28;20032;-77
2024/03/05 17:24:42;;;;;;;6.67;4.80;;;;;;;;;;6312447;28;20054;-79
2024/03/05 17:27:44;;;;;;;5.38;4.63;;;;;;;;;;6311743;28;20024;-78
2024/03/05 17:30:44;;;;;;;5.13;4.28;;;;;;;;;;6320751;28;20016;-79
2024/03/05 17:33:44;;;;;;;5.87;4.90;;;;;;;;;;6316375;28;20141;-78
2024/03/05 17:36:46;;;;;;;5.77;4.53;;;;;;;;;;6319852;28;20443;-78
2024/03/05 17:39:46;;;;;;;;;;;;;;;;;;6305462;28;20097;-83
2024/03/05 17:42:49;;;;;;;5.10;3.83;;;;;;;;;;6317005;28;19939;-79
2024/03/05 17:45:49;;;;;;;5.82;4.53;;;;;;;;;;6322222;28;20115;-77
2024/03/05 17:48:49;;;;;;;6.47;4.43;;;;;;;;;;6311901;28;20461;-78
2024/03/05 17:51:49;;;;;;;5.13;3.97;;;;;;;;;;6311804;28;20090;-76
2024/03/05 17:54:51;;;;;;;5.73;4.43;;;;;;;;;;6305651;28;20044;-77
2024/03/05 17:57:52;;;;;;;5.55;4.70;;;;;;;;;;6315625;28;20515;-77
2024/03/05 18:00:53;;;;;;;6.20;4.72;;;;;;;;;;6320313;28;20294;-77
2024/03/05 18:03:53;;;;;;;;;;;;;;;;;;6304507;28;20070;-78
2024/03/05 18:06:53;;;;;;;4.20;3.45;;;;;;;;;;6317184;28;19907;-79
2024/03/05 18:09:54;;;;;;;4.97;4.13;;;;;;;;;;6298641;28;20039;-77
2024/03/05 18:12:54;;;;;;;6.50;3.80;;;;;;;;;;6295470;28;20024;-75
2024/03/05 18:15:55;;;;;;;5.77;4.10;;;;;;;;;;6313689;28;20028;-75
2024/03/05 18:18:56;;;;;;;6.97;4.72;;;;;;;;;;6308409;28;20050;-75